»·PEaware :: N114HT L70-KPSP

N114HT :: L70-KPSP

FLIGHT INFORMATION

Flight Status: Arrived
Operator: Privately registered:
United States
More flights under this callsign
Pilot: Heigo T. (17565)
Aircraft: CESSNA 182 SKYLANE
(C182)
More flights by this aircraft type
Origin: L70 Agua Dulce
United States
Destination: KPSP Palm Springs Intl
United States
More flights between these airports :: More routes between these airports
Route: +
File this flight plan on PilotEdge
Remarks:
Altitude:
(Current/Filed)
5,500ft
Speed:
(Current/Filed)
130kts
Departed: 04-Jan-18 03:08 PM
Arrived: 04-Jan-18 04:33 PM
Distance/Time
Traveled:
98nm/1:25
Distance/Time
To Go:
Arrived

Flight Plot

Page will automatically refresh every two minutes.


Map Options




Map Legend


Flown Route
Filed Route
Departure Airport
Arrival Airport
Navaid (VOR, NDB)
Fix

Horizontal Profiles

Position Reports

Time Latitude Longitude Heading Altitude Ground
Speed
04-Jan-18 14:58 34.503319 -118.314608 177 2605ft 0kts
04-Jan-18 14:59 34.503319 -118.314608 177 2605ft 0kts
04-Jan-18 15:00 34.503319 -118.314608 177 2605ft 0kts
04-Jan-18 15:01 34.503319 -118.314608 177 2605ft 0kts
04-Jan-18 15:02 34.503318 -118.314608 177 2605ft 0kts
04-Jan-18 15:03 34.503313 -118.314608 177 2605ft 0kts
04-Jan-18 15:04 34.503308 -118.314608 176 2605ft 0kts
04-Jan-18 15:05 34.503303 -118.314607 176 2605ft 0kts
04-Jan-18 15:09 34.503220 -118.314596 157 2605ft 0kts
04-Jan-18 15:10 34.505050 -118.311532 53 2605ft 20kts
04-Jan-18 15:11 34.507781 -118.307104 93 2605ft 1kts
04-Jan-18 15:12 34.507779 -118.307097 105 2605ft 0kts
04-Jan-18 15:13 34.507767 -118.307043 105 2605ft 3kts
04-Jan-18 15:14 34.505392 -118.310102 233 2606ft 54kts
04-Jan-18 15:15 34.490455 -118.330727 221 3374ft 87kts
04-Jan-18 15:16 34.467114 -118.352886 211 4158ft 110kts
04-Jan-18 15:17 34.439074 -118.369200 205 5101ft 105kts
04-Jan-18 15:18 34.404967 -118.370760 187 5386ft 135kts
04-Jan-18 15:19 34.375368 -118.348996 134 5797ft 130kts
04-Jan-18 15:20 34.391606 -118.321290 17 5914ft 127kts
04-Jan-18 15:21 34.428007 -118.317443 342 5322ft 125kts
04-Jan-18 15:22 34.462735 -118.329246 342 4365ft 134kts
04-Jan-18 15:23 34.491146 -118.335985 5 3368ft 115kts
04-Jan-18 15:24 34.514482 -118.311631 55 3142ft 91kts
04-Jan-18 15:25 34.506292 -118.308538 235 2645ft 72kts
04-Jan-18 15:26 34.499891 -118.319045 255 2605ft 2kts
04-Jan-18 15:27 34.498675 -118.319807 151 2605ft 14kts
04-Jan-18 15:28 34.498819 -118.319527 4 2605ft 0kts
04-Jan-18 15:29 34.498819 -118.319527 4 2605ft 0kts
04-Jan-18 15:30 34.498819 -118.319527 4 2605ft 0kts
04-Jan-18 15:31 34.498819 -118.319527 4 2605ft 0kts
04-Jan-18 15:32 34.498819 -118.319527 4 2605ft 0kts
04-Jan-18 15:33 34.498819 -118.319527 4 2605ft 0kts
04-Jan-18 15:34 34.498819 -118.319527 4 2605ft 0kts
04-Jan-18 15:35 34.498819 -118.319527 4 2605ft 0kts
04-Jan-18 15:36 34.498819 -118.319527 4 2605ft 0kts
04-Jan-18 15:37 34.498819 -118.319527 4 2605ft 0kts
04-Jan-18 15:38 34.498819 -118.319527 4 2605ft 0kts
04-Jan-18 15:39 34.498819 -118.319527 4 2605ft 0kts
04-Jan-18 15:40 34.498819 -118.319527 4 2605ft 0kts
04-Jan-18 15:41 34.498819 -118.319527 4 2605ft 0kts
04-Jan-18 15:42 34.498822 -118.319526 4 2605ft 0kts
04-Jan-18 15:43 34.499421 -118.319486 14 2605ft 6kts
04-Jan-18 15:44 34.501430 -118.317348 52 2605ft 18kts
04-Jan-18 15:45 34.504817 -118.311904 53 2605ft 19kts
04-Jan-18 15:46 34.507608 -118.307422 52 2605ft 11kts
04-Jan-18 15:47 34.507747 -118.307075 137 2605ft 0kts
04-Jan-18 15:48 34.507741 -118.307068 137 2605ft 0kts
04-Jan-18 15:49 34.507206 -118.307192 231 2605ft 11kts
04-Jan-18 15:50 34.494708 -118.325064 213 3021ft 101kts
04-Jan-18 15:51 34.467808 -118.342570 222 3766ft 115kts
04-Jan-18 15:52 34.442237 -118.365571 215 4572ft 114kts
04-Jan-18 15:53 34.413442 -118.384381 213 5415ft 119kts
04-Jan-18 15:54 34.378014 -118.396035 185 5487ft 142kts
04-Jan-18 15:55 34.338056 -118.394485 172 5471ft 143kts
04-Jan-18 15:56 34.302900 -118.372605 141 5484ft 147kts
04-Jan-18 15:57 34.279528 -118.332537 118 5504ft 149kts
04-Jan-18 15:58 34.263149 -118.285320 117 5479ft 153kts
04-Jan-18 15:59 34.245030 -118.239874 121 5489ft 146kts
04-Jan-18 16:00 34.226141 -118.195409 121 5507ft 152kts
04-Jan-18 16:01 34.206730 -118.149966 121 5502ft 152kts
04-Jan-18 16:02 34.187469 -118.104983 121 5488ft 149kts
04-Jan-18 16:03 34.170392 -118.058825 100 5494ft 155kts
04-Jan-18 16:04 34.164486 -118.007327 100 5501ft 156kts
04-Jan-18 16:05 34.158476 -117.955698 100 5506ft 156kts
04-Jan-18 16:06 34.152426 -117.903809 100 5511ft 156kts
04-Jan-18 16:07 34.146432 -117.852329 100 5518ft 155kts
04-Jan-18 16:08 34.140444 -117.800897 100 5516ft 155kts
04-Jan-18 16:09 34.138507 -117.749078 94 5516ft 156kts
04-Jan-18 16:10 34.138950 -117.697170 77 5498ft 154kts
04-Jan-18 16:11 34.148724 -117.647821 78 5492ft 149kts
04-Jan-18 16:12 34.155653 -117.598499 86 5497ft 150kts
04-Jan-18 16:13 34.159408 -117.548401 87 5489ft 149kts
04-Jan-18 16:14 34.163156 -117.498650 87 5487ft 147kts
04-Jan-18 16:15 34.160689 -117.449519 100 5490ft 147kts
04-Jan-18 16:16 34.155741 -117.400392 100 5497ft 147kts
04-Jan-18 16:17 34.150853 -117.351420 100 5503ft 147kts
04-Jan-18 16:18 34.145879 -117.302044 100 5500ft 151kts
04-Jan-18 16:19 34.134539 -117.254110 116 5488ft 146kts
04-Jan-18 16:20 34.119156 -117.208285 116 5494ft 149kts
04-Jan-18 16:21 34.097504 -117.166204 131 5496ft 149kts
04-Jan-18 16:22 34.072655 -117.125879 131 5500ft 150kts
04-Jan-18 16:23 34.048202 -117.086263 131 5501ft 144kts
04-Jan-18 16:24 34.024361 -117.047730 131 5512ft 142kts
04-Jan-18 16:25 34.000311 -117.008879 131 5528ft 148kts
04-Jan-18 16:26 33.975680 -116.969463 131 5518ft 144kts
04-Jan-18 16:27 33.951600 -116.931034 130 5523ft 144kts
04-Jan-18 16:28 33.935488 -116.886942 104 5522ft 144kts
04-Jan-18 16:29 33.927112 -116.839728 105 5567ft 142kts
04-Jan-18 16:30 33.920521 -116.790972 100 5274ft 152kts
04-Jan-18 16:31 33.922628 -116.739032 84 4777ft 158kts
04-Jan-18 16:32 33.928507 -116.687528 84 4269ft 152kts
04-Jan-18 16:33 33.933973 -116.639321 84 3199ft 138kts
04-Jan-18 16:34 33.925962 -116.596544 128 2508ft 135kts
04-Jan-18 16:35 33.898968 -116.566880 148 1922ft 126kts
04-Jan-18 16:36 33.873492 -116.546998 147 1551ft 92kts
04-Jan-18 16:37 33.854181 -116.529263 144 1132ft 87kts
04-Jan-18 16:38 33.834827 -116.512200 144 551ft 74kts
04-Jan-18 16:39 33.828456 -116.507211 178 480ft 6kts
04-Jan-18 16:40 33.826482 -116.506867 163 480ft 13kts
04-Jan-18 16:41 33.825350 -116.508252 271 480ft 11kts
04-Jan-18 16:42 33.826123 -116.509753 98 480ft 0kts
04-Jan-18 16:43 33.826123 -116.509753 98 480ft 0kts
04-Jan-18 16:44 33.826123 -116.509753 98 480ft 0kts
04-Jan-18 16:45 33.826123 -116.509753 98 480ft 0kts
04-Jan-18 16:46 33.826123 -116.509753 98 480ft 0kts
04-Jan-18 16:47 33.826123 -116.509753 98 480ft 0kts
04-Jan-18 16:48 33.826123 -116.509753 98 480ft 0kts
04-Jan-18 16:49 33.826123 -116.509753 98 480ft 0kts
04-Jan-18 16:50 33.826123 -116.509753 98 480ft 0kts
04-Jan-18 16:51 33.826123 -116.509753 98 480ft 0kts
04-Jan-18 16:52 33.826123 -116.509753 98 480ft 0kts
04-Jan-18 16:53 33.826123 -116.509753 98 480ft 0kts

Navigation Log

Ident Type
1. L70 Airport
2. KPSP Airport